sensor_id;sensor_type;location;lat;lon;timestamp;temperature;humidity
296;DHT22;132;48.770;9.200;2024-01-25T00:01:56;10.40;1.00
296;DHT22;132;48.770;9.200;2024-01-25T00:04:43;10.40;1.00
296;DHT22;132;48.770;9.200;2024-01-25T00:07:29;10.70;1.00
296;DHT22;132;48.770;9.200;2024-01-25T00:10:17;10.40;1.00
296;DHT22;132;48.770;9.200;2024-01-25T00:13:04;10.40;1.00
296;DHT22;132;48.770;9.200;2024-01-25T00:15:51;10.40;1.00
296;DHT22;132;48.770;9.200;2024-01-25T00:18:38;10.40;1.00
296;DHT22;132;48.770;9.200;2024-01-25T00:21:25;10.50;1.00
296;DHT22;132;48.770;9.200;2024-01-25T00:24:12;10.40;1.00
296;DHT22;132;48.770;9.200;2024-01-25T00:26:59;10.50;1.00
296;DHT22;132;48.770;9.200;2024-01-25T00:29:45;10.40;1.00
296;DHT22;132;48.770;9.200;2024-01-25T00:32:32;10.40;1.00
296;DHT22;132;48.770;9.200;2024-01-25T00:35:19;10.40;1.00
296;DHT22;132;48.770;9.200;2024-01-25T00:38:06;10.40;1.00
296;DHT22;132;48.770;9.200;2024-01-25T00:40:53;10.40;1.00
296;DHT22;132;48.770;9.200;2024-01-25T00:43:40;10.50;1.00
296;DHT22;132;48.770;9.200;2024-01-25T00:46:26;10.50;1.00
296;DHT22;132;48.770;9.200;2024-01-25T00:49:14;10.50;1.00
296;DHT22;132;48.770;9.200;2024-01-25T00:52:02;10.50;1.00
296;DHT22;132;48.770;9.200;2024-01-25T00:54:49;10.40;1.00
296;DHT22;132;48.770;9.200;2024-01-25T00:57:36;10.50;1.00
296;DHT22;132;48.770;9.200;2024-01-25T01:00:23;10.50;1.00
296;DHT22;132;48.770;9.200;2024-01-25T01:03:11;10.50;1.00
296;DHT22;132;48.770;9.200;2024-01-25T01:05:58;10.50;1.00
296;DHT22;132;48.770;9.200;2024-01-25T01:08:45;10.40;1.00
296;DHT22;132;48.770;9.200;2024-01-25T01:11:32;10.50;1.00
296;DHT22;132;48.770;9.200;2024-01-25T01:14:18;10.50;1.00
296;DHT22;132;48.770;9.200;2024-01-25T01:17:05;10.40;1.00
296;DHT22;132;48.770;9.200;2024-01-25T01:19:52;10.50;1.00
296;DHT22;132;48.770;9.200;2024-01-25T01:22:38;10.50;1.00
296;DHT22;132;48.770;9.200;2024-01-25T01:25:25;10.50;1.00
296;DHT22;132;48.770;9.200;2024-01-25T01:28:12;10.50;1.00
296;DHT22;132;48.770;9.200;2024-01-25T01:30:58;10.50;1.00
296;DHT22;132;48.770;9.200;2024-01-25T01:33:45;10.50;1.00
296;DHT22;132;48.770;9.200;2024-01-25T01:36:31;10.50;1.00
296;DHT22;132;48.770;9.200;2024-01-25T01:39:18;10.50;1.00
296;DHT22;132;48.770;9.200;2024-01-25T01:42:05;10.50;1.00
296;DHT22;132;48.770;9.200;2024-01-25T01:44:52;10.50;1.00
296;DHT22;132;48.770;9.200;2024-01-25T01:47:40;10.60;1.00
296;DHT22;132;48.770;9.200;2024-01-25T01:50:27;10.40;1.00
296;DHT22;132;48.770;9.200;2024-01-25T01:53:13;10.40;1.00
296;DHT22;132;48.770;9.200;2024-01-25T01:56:01;10.40;1.00
296;DHT22;132;48.770;9.200;2024-01-25T01:58:48;10.40;1.00
296;DHT22;132;48.770;9.200;2024-01-25T02:01:35;10.40;1.00
296;DHT22;132;48.770;9.200;2024-01-25T02:04:21;10.40;1.00
296;DHT22;132;48.770;9.200;2024-01-25T02:07:08;10.50;1.00
296;DHT22;132;48.770;9.200;2024-01-25T02:09:55;10.40;1.00
296;DHT22;132;48.770;9.200;2024-01-25T02:12:41;10.40;1.00
296;DHT22;132;48.770;9.200;2024-01-25T02:15:28;10.40;1.00
296;DHT22;132;48.770;9.200;2024-01-25T02:18:15;10.30;1.00
296;DHT22;132;48.770;9.200;2024-01-25T02:21:02;10.30;1.00
296;DHT22;132;48.770;9.200;2024-01-25T02:23:49;10.30;1.00
296;DHT22;132;48.770;9.200;2024-01-25T02:26:36;10.40;1.00
296;DHT22;132;48.770;9.200;2024-01-25T02:29:22;10.40;1.00
296;DHT22;132;48.770;9.200;2024-01-25T02:32:09;10.30;1.00
296;DHT22;132;48.770;9.200;2024-01-25T02:34:56;10.30;1.00
296;DHT22;132;48.770;9.200;2024-01-25T02:37:42;10.30;1.00
296;DHT22;132;48.770;9.200;2024-01-25T02:40:29;10.30;1.00
296;DHT22;132;48.770;9.200;2024-01-25T02:43:16;10.30;1.00
296;DHT22;132;48.770;9.200;2024-01-25T02:46:02;10.30;1.00
296;DHT22;132;48.770;9.200;2024-01-25T02:48:49;10.30;1.00
296;DHT22;132;48.770;9.200;2024-01-25T02:51:36;10.20;1.00
296;DHT22;132;48.770;9.200;2024-01-25T02:54:22;9.10;1.00
296;DHT22;132;48.770;9.200;2024-01-25T02:57:09;10.20;1.00
296;DHT22;132;48.770;9.200;2024-01-25T02:59:56;10.30;1.00
296;DHT22;132;48.770;9.200;2024-01-25T03:02:42;10.20;1.00
296;DHT22;132;48.770;9.200;2024-01-25T03:05:29;11.30;1.00
296;DHT22;132;48.770;9.200;2024-01-25T03:08:15;10.20;1.00
296;DHT22;132;48.770;9.200;2024-01-25T03:11:02;10.20;1.00
296;DHT22;132;48.770;9.200;2024-01-25T03:13:51;10.20;1.00
296;DHT22;132;48.770;9.200;2024-01-25T03:16:37;10.20;1.00
296;DHT22;132;48.770;9.200;2024-01-25T03:19:25;10.20;1.00
296;DHT22;132;48.770;9.200;2024-01-25T03:22:14;10.20;1.00
296;DHT22;132;48.770;9.200;2024-01-25T03:25:01;10.20;1.00
296;DHT22;132;48.770;9.200;2024-01-25T03:27:48;10.10;1.00
296;DHT22;132;48.770;9.200;2024-01-25T03:30:35;10.10;1.00
296;DHT22;132;48.770;9.200;2024-01-25T03:33:21;10.10;1.00
296;DHT22;132;48.770;9.200;2024-01-25T03:36:08;10.10;1.00
296;DHT22;132;48.770;9.200;2024-01-25T03:38:55;10.10;1.00
296;DHT22;132;48.770;9.200;2024-01-25T03:41:41;10.10;1.00
296;DHT22;132;48.770;9.200;2024-01-25T03:44:28;10.10;1.00
296;DHT22;132;48.770;9.200;2024-01-25T03:47:14;10.10;1.00
296;DHT22;132;48.770;9.200;2024-01-25T03:50:01;10.00;1.00
296;DHT22;132;48.770;9.200;2024-01-25T03:52:48;10.00;1.00
296;DHT22;132;48.770;9.200;2024-01-25T03:55:34;10.00;1.00
296;DHT22;132;48.770;9.200;2024-01-25T03:58:21;10.00;1.00
296;DHT22;132;48.770;9.200;2024-01-25T04:01:08;10.00;1.00
296;DHT22;132;48.770;9.200;2024-01-25T04:03:55;10.00;1.00
296;DHT22;132;48.770;9.200;2024-01-25T04:06:42;10.00;1.00
296;DHT22;132;48.770;9.200;2024-01-25T04:09:29;10.00;1.00
296;DHT22;132;48.770;9.200;2024-01-25T04:12:16;9.90;1.00
296;DHT22;132;48.770;9.200;2024-01-25T04:15:03;10.00;1.00
296;DHT22;132;48.770;9.200;2024-01-25T04:17:50;9.90;1.00
296;DHT22;132;48.770;9.200;2024-01-25T04:20:36;9.90;1.00
296;DHT22;132;48.770;9.200;2024-01-25T04:23:23;9.90;1.00
296;DHT22;132;48.770;9.200;2024-01-25T04:26:10;9.90;1.00
296;DHT22;132;48.770;9.200;2024-01-25T04:28:56;9.90;1.00
296;DHT22;132;48.770;9.200;2024-01-25T04:31:44;9.80;1.00
296;DHT22;132;48.770;9.200;2024-01-25T04:34:31;9.80;1.00
296;DHT22;132;48.770;9.200;2024-01-25T04:37:18;9.80;1.00
296;DHT22;132;48.770;9.200;2024-01-25T04:40:05;9.80;1.00
296;DHT22;132;48.770;9.200;2024-01-25T04:42:52;9.70;1.00
296;DHT22;132;48.770;9.200;2024-01-25T04:45:39;9.70;1.00
296;DHT22;132;48.770;9.200;2024-01-25T04:48:25;9.70;1.00
296;DHT22;132;48.770;9.200;2024-01-25T04:51:19;9.70;1.00
296;DHT22;132;48.770;9.200;2024-01-25T04:54:08;9.60;1.00
296;DHT22;132;48.770;9.200;2024-01-25T04:56:59;8.70;1.00
296;DHT22;132;48.770;9.200;2024-01-25T04:59:45;9.60;1.00
296;DHT22;132;48.770;9.200;2024-01-25T05:02:32;9.60;1.00
296;DHT22;132;48.770;9.200;2024-01-25T05:05:18;9.60;1.00
296;DHT22;132;48.770;9.200;2024-01-25T05:08:05;9.60;1.00
296;DHT22;132;48.770;9.200;2024-01-25T05:10:52;9.60;1.00
296;DHT22;132;48.770;9.200;2024-01-25T05:13:39;9.60;1.00
296;DHT22;132;48.770;9.200;2024-01-25T05:16:25;9.50;1.00
296;DHT22;132;48.770;9.200;2024-01-25T05:19:12;9.50;1.00
296;DHT22;132;48.770;9.200;2024-01-25T05:21:58;9.50;1.00
296;DHT22;132;48.770;9.200;2024-01-25T05:24:45;9.50;1.00
296;DHT22;132;48.770;9.200;2024-01-25T05:27:32;9.30;1.00
296;DHT22;132;48.770;9.200;2024-01-25T05:30:19;9.30;1.00
296;DHT22;132;48.770;9.200;2024-01-25T05:33:06;9.30;1.00
296;DHT22;132;48.770;9.200;2024-01-25T05:35:52;9.20;1.00
296;DHT22;132;48.770;9.200;2024-01-25T05:38:39;9.20;1.00
296;DHT22;132;48.770;9.200;2024-01-25T05:41:25;9.40;1.00
296;DHT22;132;48.770;9.200;2024-01-25T05:44:13;9.10;1.00
296;DHT22;132;48.770;9.200;2024-01-25T05:46:59;9.90;1.00
296;DHT22;132;48.770;9.200;2024-01-25T05:49:46;9.00;1.00
296;DHT22;132;48.770;9.200;2024-01-25T05:52:33;8.90;1.00
296;DHT22;132;48.770;9.200;2024-01-25T05:55:23;8.90;1.00
296;DHT22;132;48.770;9.200;2024-01-25T05:58:09;8.90;1.00
296;DHT22;132;48.770;9.200;2024-01-25T06:00:56;8.80;1.00
296;DHT22;132;48.770;9.200;2024-01-25T06:03:43;8.80;1.00
296;DHT22;132;48.770;9.200;2024-01-25T06:06:29;8.80;1.00
296;DHT22;132;48.770;9.200;2024-01-25T06:09:16;8.80;1.00
296;DHT22;132;48.770;9.200;2024-01-25T06:12:02;8.70;1.00
296;DHT22;132;48.770;9.200;2024-01-25T06:14:51;8.70;1.00
296;DHT22;132;48.770;9.200;2024-01-25T06:17:38;8.70;1.00
296;DHT22;132;48.770;9.200;2024-01-25T06:20:25;8.60;1.00
296;DHT22;132;48.770;9.200;2024-01-25T06:23:11;8.70;1.00
296;DHT22;132;48.770;9.200;2024-01-25T06:25:58;9.40;1.00
296;DHT22;132;48.770;9.200;2024-01-25T06:28:45;8.50;1.00
296;DHT22;132;48.770;9.200;2024-01-25T06:31:32;8.50;1.00
296;DHT22;132;48.770;9.200;2024-01-25T06:34:18;8.50;1.00
296;DHT22;132;48.770;9.200;2024-01-25T06:37:05;8.40;1.00
296;DHT22;132;48.770;9.200;2024-01-25T06:39:51;8.50;1.00
296;DHT22;132;48.770;9.200;2024-01-25T06:42:38;8.40;1.00
296;DHT22;132;48.770;9.200;2024-01-25T06:45:24;8.60;1.00
296;DHT22;132;48.770;9.200;2024-01-25T06:48:11;8.40;1.00
296;DHT22;132;48.770;9.200;2024-01-25T06:50:58;8.30;1.00
296;DHT22;132;48.770;9.200;2024-01-25T06:53:44;8.30;1.00
296;DHT22;132;48.770;9.200;2024-01-25T06:56:31;8.60;1.00
296;DHT22;132;48.770;9.200;2024-01-25T06:59:17;8.30;1.00
296;DHT22;132;48.770;9.200;2024-01-25T07:02:04;8.30;1.00
296;DHT22;132;48.770;9.200;2024-01-25T07:04:51;8.30;1.00
296;DHT22;132;48.770;9.200;2024-01-25T07:07:39;8.30;1.00
296;DHT22;132;48.770;9.200;2024-01-25T07:10:26;8.30;1.00
296;DHT22;132;48.770;9.200;2024-01-25T07:13:13;8.30;1.00
296;DHT22;132;48.770;9.200;2024-01-25T07:15:59;8.30;1.00
296;DHT22;132;48.770;9.200;2024-01-25T07:18:46;8.30;1.00
296;DHT22;132;48.770;9.200;2024-01-25T07:21:32;8.30;1.00
296;DHT22;132;48.770;9.200;2024-01-25T07:24:19;8.30;1.00
296;DHT22;132;48.770;9.200;2024-01-25T07:27:06;8.20;1.00
296;DHT22;132;48.770;9.200;2024-01-25T07:29:52;8.20;1.00
296;DHT22;132;48.770;9.200;2024-01-25T07:32:39;8.20;1.00
296;DHT22;132;48.770;9.200;2024-01-25T07:35:28;8.20;1.00
296;DHT22;132;48.770;9.200;2024-01-25T07:38:15;8.20;1.00
296;DHT22;132;48.770;9.200;2024-01-25T07:41:02;8.20;1.00
296;DHT22;132;48.770;9.200;2024-01-25T07:43:48;8.20;1.00
296;DHT22;132;48.770;9.200;2024-01-25T07:46:35;8.30;1.00
296;DHT22;132;48.770;9.200;2024-01-25T07:49:21;8.20;1.00
296;DHT22;132;48.770;9.200;2024-01-25T07:52:08;8.20;1.00
296;DHT22;132;48.770;9.200;2024-01-25T07:54:55;8.20;1.00
296;DHT22;132;48.770;9.200;2024-01-25T07:57:42;8.30;1.00
296;DHT22;132;48.770;9.200;2024-01-25T08:00:28;8.30;1.00
296;DHT22;132;48.770;9.200;2024-01-25T08:03:15;8.30;1.00
296;DHT22;132;48.770;9.200;2024-01-25T08:06:03;8.30;1.00
296;DHT22;132;48.770;9.200;2024-01-25T08:08:49;8.30;1.00
296;DHT22;132;48.770;9.200;2024-01-25T08:11:36;8.30;1.00
296;DHT22;132;48.770;9.200;2024-01-25T08:14:23;8.30;1.00
296;DHT22;132;48.770;9.200;2024-01-25T08:17:09;8.40;1.00
296;DHT22;132;48.770;9.200;2024-01-25T08:19:56;8.40;1.00
296;DHT22;132;48.770;9.200;2024-01-25T08:22:43;8.50;1.00
296;DHT22;132;48.770;9.200;2024-01-25T08:25:29;8.50;1.00
296;DHT22;132;48.770;9.200;2024-01-25T08:28:16;8.50;1.00
296;DHT22;132;48.770;9.200;2024-01-25T08:31:02;8.60;1.00
296;DHT22;132;48.770;9.200;2024-01-25T08:33:49;8.60;1.00
296;DHT22;132;48.770;9.200;2024-01-25T08:36:36;8.60;1.00
296;DHT22;132;48.770;9.200;2024-01-25T08:39:22;8.90;1.00
296;DHT22;132;48.770;9.200;2024-01-25T08:42:09;8.60;1.00
296;DHT22;132;48.770;9.200;2024-01-25T08:44:57;8.70;1.00
296;DHT22;132;48.770;9.200;2024-01-25T08:47:45;8.70;1.00
296;DHT22;132;48.770;9.200;2024-01-25T08:50:32;8.80;1.00
296;DHT22;132;48.770;9.200;2024-01-25T08:53:20;8.80;1.00
296;DHT22;132;48.770;9.200;2024-01-25T08:56:09;8.80;1.00
296;DHT22;132;48.770;9.200;2024-01-25T08:58:56;8.80;1.00
296;DHT22;132;48.770;9.200;2024-01-25T09:01:42;8.80;1.00
296;DHT22;132;48.770;9.200;2024-01-25T09:04:29;8.80;1.00
296;DHT22;132;48.770;9.200;2024-01-25T09:07:15;8.90;1.00
296;DHT22;132;48.770;9.200;2024-01-25T09:10:03;8.90;1.00
296;DHT22;132;48.770;9.200;2024-01-25T09:12:51;9.00;1.00
296;DHT22;132;48.770;9.200;2024-01-25T09:15:37;9.00;1.00
296;DHT22;132;48.770;9.200;2024-01-25T09:18:24;9.20;1.00
296;DHT22;132;48.770;9.200;2024-01-25T09:21:10;9.30;1.00
296;DHT22;132;48.770;9.200;2024-01-25T09:23:57;9.60;1.00
296;DHT22;132;48.770;9.200;2024-01-25T09:26:44;10.10;1.00
296;DHT22;132;48.770;9.200;2024-01-25T09:29:30;10.40;1.00
296;DHT22;132;48.770;9.200;2024-01-25T09:32:17;10.70;1.00
296;DHT22;132;48.770;9.200;2024-01-25T09:35:04;11.00;1.00
296;DHT22;132;48.770;9.200;2024-01-25T09:37:50;11.10;1.00
296;DHT22;132;48.770;9.200;2024-01-25T09:40:39;11.30;1.00
296;DHT22;132;48.770;9.200;2024-01-25T09:43:25;11.50;1.00
296;DHT22;132;48.770;9.200;2024-01-25T09:46:13;11.60;1.00
296;DHT22;132;48.770;9.200;2024-01-25T09:49:02;11.50;1.00
296;DHT22;132;48.770;9.200;2024-01-25T09:51:50;11.50;1.00
296;DHT22;132;48.770;9.200;2024-01-25T09:54:38;11.70;1.00
296;DHT22;132;48.770;9.200;2024-01-25T09:57:28;12.10;1.00
296;DHT22;132;48.770;9.200;2024-01-25T10:00:15;12.10;1.00
296;DHT22;132;48.770;9.200;2024-01-25T10:03:02;12.10;1.00
296;DHT22;132;48.770;9.200;2024-01-25T10:05:48;12.10;1.00
296;DHT22;132;48.770;9.200;2024-01-25T10:08:35;12.00;1.00
296;DHT22;132;48.770;9.200;2024-01-25T10:11:22;12.00;1.00
296;DHT22;132;48.770;9.200;2024-01-25T10:14:09;12.10;1.00
296;DHT22;132;48.770;9.200;2024-01-25T10:16:55;12.20;1.00
296;DHT22;132;48.770;9.200;2024-01-25T10:19:43;12.20;1.00
296;DHT22;132;48.770;9.200;2024-01-25T10:22:30;12.50;1.00
296;DHT22;132;48.770;9.200;2024-01-25T10:25:17;12.40;1.00
296;DHT22;132;48.770;9.200;2024-01-25T10:28:05;12.50;1.00
296;DHT22;132;48.770;9.200;2024-01-25T10:30:51;12.60;1.00
296;DHT22;132;48.770;9.200;2024-01-25T10:33:38;12.30;1.00
296;DHT22;132;48.770;9.200;2024-01-25T10:36:26;12.80;1.00
296;DHT22;132;48.770;9.200;2024-01-25T10:39:13;13.00;1.00
296;DHT22;132;48.770;9.200;2024-01-25T10:42:01;14.10;1.00
296;DHT22;132;48.770;9.200;2024-01-25T10:44:47;15.10;1.00
296;DHT22;132;48.770;9.200;2024-01-25T10:47:35;15.40;1.00
296;DHT22;132;48.770;9.200;2024-01-25T10:50:22;15.90;1.00
296;DHT22;132;48.770;9.200;2024-01-25T10:53:11;16.20;1.00
296;DHT22;132;48.770;9.200;2024-01-25T10:55:58;15.60;1.00
296;DHT22;132;48.770;9.200;2024-01-25T10:58:46;15.20;1.00
296;DHT22;132;48.770;9.200;2024-01-25T11:01:33;15.90;1.00
296;DHT22;132;48.770;9.200;2024-01-25T11:04:21;15.40;1.00
296;DHT22;132;48.770;9.200;2024-01-25T11:07:08;14.90;1.00
296;DHT22;132;48.770;9.200;2024-01-25T11:09:55;16.00;1.00
296;DHT22;132;48.770;9.200;2024-01-25T11:12:59;17.20;1.00
296;DHT22;132;48.770;9.200;2024-01-25T11:15:46;18.20;1.00
296;DHT22;132;48.770;9.200;2024-01-25T11:18:32;19.20;1.00
296;DHT22;132;48.770;9.200;2024-01-25T11:21:37;18.10;1.00
296;DHT22;132;48.770;9.200;2024-01-25T11:24:25;17.10;1.00
296;DHT22;132;48.770;9.200;2024-01-25T11:27:15;16.20;1.00
296;DHT22;132;48.770;9.200;2024-01-25T11:30:01;16.10;1.00
296;DHT22;132;48.770;9.200;2024-01-25T11:32:49;17.20;1.00
296;DHT22;132;48.770;9.200;2024-01-25T11:35:36;17.40;1.00
296;DHT22;132;48.770;9.200;2024-01-25T11:38:22;18.90;1.00
296;DHT22;132;48.770;9.200;2024-01-25T11:41:09;19.30;1.00
296;DHT22;132;48.770;9.200;2024-01-25T11:43:56;18.80;1.00
296;DHT22;132;48.770;9.200;2024-01-25T11:46:43;19.60;1.00
296;DHT22;132;48.770;9.200;2024-01-25T11:49:29;20.60;1.00
296;DHT22;132;48.770;9.200;2024-01-25T11:52:16;20.80;1.00
296;DHT22;132;48.770;9.200;2024-01-25T11:55:07;21.80;1.00
296;DHT22;132;48.770;9.200;2024-01-25T11:57:54;21.70;1.00
296;DHT22;132;48.770;9.200;2024-01-25T12:00:41;21.30;1.00
296;DHT22;132;48.770;9.200;2024-01-25T12:03:28;22.00;1.00
296;DHT22;132;48.770;9.200;2024-01-25T12:06:14;22.90;1.00
296;DHT22;132;48.770;9.200;2024-01-25T12:09:11;23.70;1.00
296;DHT22;132;48.770;9.200;2024-01-25T12:12:00;24.40;1.00
296;DHT22;132;48.770;9.200;2024-01-25T12:14:47;24.80;1.00
296;DHT22;132;48.770;9.200;2024-01-25T12:17:34;24.50;1.00
296;DHT22;132;48.770;9.200;2024-01-25T12:20:26;24.80;1.00
296;DHT22;132;48.770;9.200;2024-01-25T12:23:13;25.00;1.00
296;DHT22;132;48.770;9.200;2024-01-25T12:26:01;25.40;1.00
296;DHT22;132;48.770;9.200;2024-01-25T12:28:48;25.80;1.00
296;DHT22;132;48.770;9.200;2024-01-25T12:31:36;26.10;1.00
296;DHT22;132;48.770;9.200;2024-01-25T12:34:22;26.10;1.00
296;DHT22;132;48.770;9.200;2024-01-25T12:37:09;26.20;1.00
296;DHT22;132;48.770;9.200;2024-01-25T12:39:56;26.30;1.00
296;DHT22;132;48.770;9.200;2024-01-25T12:42:42;26.20;1.00
296;DHT22;132;48.770;9.200;2024-01-25T12:45:29;26.20;1.00
296;DHT22;132;48.770;9.200;2024-01-25T12:48:17;26.20;1.00
296;DHT22;132;48.770;9.200;2024-01-25T12:51:04;26.10;1.00
296;DHT22;132;48.770;9.200;2024-01-25T12:53:51;26.00;1.00
296;DHT22;132;48.770;9.200;2024-01-25T12:56:37;25.80;1.00
296;DHT22;132;48.770;9.200;2024-01-25T12:59:24;25.90;1.00
296;DHT22;132;48.770;9.200;2024-01-25T13:02:12;25.90;1.00
296;DHT22;132;48.770;9.200;2024-01-25T13:04:58;25.80;1.00
296;DHT22;132;48.770;9.200;2024-01-25T13:07:45;25.50;1.00
296;DHT22;132;48.770;9.200;2024-01-25T13:10:32;25.20;1.00
296;DHT22;132;48.770;9.200;2024-01-25T13:13:18;24.80;1.00
296;DHT22;132;48.770;9.200;2024-01-25T13:16:05;25.10;1.00
296;DHT22;132;48.770;9.200;2024-01-25T13:21:39;25.20;1.00
296;DHT22;132;48.770;9.200;2024-01-25T13:24:26;25.30;1.00
296;DHT22;132;48.770;9.200;2024-01-25T13:27:12;25.30;1.00
296;DHT22;132;48.770;9.200;2024-01-25T13:29:59;25.30;1.00
296;DHT22;132;48.770;9.200;2024-01-25T13:32:46;25.10;1.00
296;DHT22;132;48.770;9.200;2024-01-25T13:35:33;25.00;1.00
296;DHT22;132;48.770;9.200;2024-01-25T13:38:19;24.80;1.00
296;DHT22;132;48.770;9.200;2024-01-25T13:41:06;24.60;1.00
296;DHT22;132;48.770;9.200;2024-01-25T13:43:53;24.40;1.00
296;DHT22;132;48.770;9.200;2024-01-25T13:46:39;24.10;1.00
296;DHT22;132;48.770;9.200;2024-01-25T13:49:26;24.00;1.00
296;DHT22;132;48.770;9.200;2024-01-25T13:52:17;23.60;1.00
296;DHT22;132;48.770;9.200;2024-01-25T13:55:07;22.60;1.00
296;DHT22;132;48.770;9.200;2024-01-25T13:57:54;21.40;1.00
296;DHT22;132;48.770;9.200;2024-01-25T14:00:41;20.60;1.00
296;DHT22;132;48.770;9.200;2024-01-25T14:03:27;20.50;1.00
296;DHT22;132;48.770;9.200;2024-01-25T14:06:14;20.20;1.00
296;DHT22;132;48.770;9.200;2024-01-25T14:09:00;19.50;1.00
296;DHT22;132;48.770;9.200;2024-01-25T14:11:47;19.30;1.00
296;DHT22;132;48.770;9.200;2024-01-25T14:14:36;19.60;1.00
296;DHT22;132;48.770;9.200;2024-01-25T14:17:22;19.70;1.00
296;DHT22;132;48.770;9.200;2024-01-25T14:20:09;19.70;1.00
296;DHT22;132;48.770;9.200;2024-01-25T14:22:56;19.70;1.00
296;DHT22;132;48.770;9.200;2024-01-25T14:25:43;19.20;1.00
296;DHT22;132;48.770;9.200;2024-01-25T14:28:31;18.50;1.00
296;DHT22;132;48.770;9.200;2024-01-25T14:31:18;17.60;1.00
296;DHT22;132;48.770;9.200;2024-01-25T14:34:04;16.70;1.00
296;DHT22;132;48.770;9.200;2024-01-25T14:36:51;15.80;1.00
296;DHT22;132;48.770;9.200;2024-01-25T14:39:38;15.30;1.00
296;DHT22;132;48.770;9.200;2024-01-25T14:42:24;14.90;1.00
296;DHT22;132;48.770;9.200;2024-01-25T14:45:11;14.50;1.00
296;DHT22;132;48.770;9.200;2024-01-25T14:47:57;14.10;1.00
296;DHT22;132;48.770;9.200;2024-01-25T14:50:44;13.70;1.00
296;DHT22;132;48.770;9.200;2024-01-25T14:53:31;13.50;1.00
296;DHT22;132;48.770;9.200;2024-01-25T14:56:17;13.20;1.00
296;DHT22;132;48.770;9.200;2024-01-25T14:59:04;13.00;1.00
296;DHT22;132;48.770;9.200;2024-01-25T15:01:50;12.90;1.00
296;DHT22;132;48.770;9.200;2024-01-25T15:04:37;12.80;1.00
296;DHT22;132;48.770;9.200;2024-01-25T15:07:24;12.70;1.00
296;DHT22;132;48.770;9.200;2024-01-25T15:10:10;12.40;1.00
296;DHT22;132;48.770;9.200;2024-01-25T15:12:58;12.40;1.00
296;DHT22;132;48.770;9.200;2024-01-25T15:15:45;12.40;1.00
296;DHT22;132;48.770;9.200;2024-01-25T15:18:32;12.10;1.00
296;DHT22;132;48.770;9.200;2024-01-25T15:21:18;12.10;1.00
296;DHT22;132;48.770;9.200;2024-01-25T15:24:05;12.20;1.00
296;DHT22;132;48.770;9.200;2024-01-25T15:26:52;12.10;1.00
296;DHT22;132;48.770;9.200;2024-01-25T15:29:42;12.20;1.00
296;DHT22;132;48.770;9.200;2024-01-25T15:32:28;12.20;1.00
296;DHT22;132;48.770;9.200;2024-01-25T15:35:15;12.30;1.00
296;DHT22;132;48.770;9.200;2024-01-25T15:38:01;12.20;1.00
296;DHT22;132;48.770;9.200;2024-01-25T15:40:51;12.20;1.00
296;DHT22;132;48.770;9.200;2024-01-25T15:43:38;12.10;1.00
296;DHT22;132;48.770;9.200;2024-01-25T15:46:25;12.10;1.00
296;DHT22;132;48.770;9.200;2024-01-25T15:49:12;12.00;1.00
296;DHT22;132;48.770;9.200;2024-01-25T15:51:59;11.90;1.00
296;DHT22;132;48.770;9.200;2024-01-25T15:54:45;11.80;1.00
296;DHT22;132;48.770;9.200;2024-01-25T15:57:32;11.70;1.00
296;DHT22;132;48.770;9.200;2024-01-25T16:00:19;11.60;1.00
296;DHT22;132;48.770;9.200;2024-01-25T16:03:06;11.60;1.00
296;DHT22;132;48.770;9.200;2024-01-25T16:05:52;11.50;1.00
296;DHT22;132;48.770;9.200;2024-01-25T16:08:40;11.50;1.00
296;DHT22;132;48.770;9.200;2024-01-25T16:11:27;11.50;1.00
296;DHT22;132;48.770;9.200;2024-01-25T16:14:14;11.50;1.00
296;DHT22;132;48.770;9.200;2024-01-25T16:17:01;11.40;1.00
296;DHT22;132;48.770;9.200;2024-01-25T16:19:48;11.40;1.00
296;DHT22;132;48.770;9.200;2024-01-25T16:22:35;11.40;1.00
296;DHT22;132;48.770;9.200;2024-01-25T16:25:23;11.40;1.00
296;DHT22;132;48.770;9.200;2024-01-25T16:28:10;11.40;1.00
296;DHT22;132;48.770;9.200;2024-01-25T16:30:57;11.40;1.00
296;DHT22;132;48.770;9.200;2024-01-25T16:33:44;11.50;1.00
296;DHT22;132;48.770;9.200;2024-01-25T16:36:31;11.40;1.00
296;DHT22;132;48.770;9.200;2024-01-25T16:39:18;11.40;1.00
296;DHT22;132;48.770;9.200;2024-01-25T16:42:04;11.30;1.00
296;DHT22;132;48.770;9.200;2024-01-25T16:44:51;11.30;1.00
296;DHT22;132;48.770;9.200;2024-01-25T16:47:37;11.20;1.00
296;DHT22;132;48.770;9.200;2024-01-25T16:50:24;11.20;1.00
296;DHT22;132;48.770;9.200;2024-01-25T16:53:11;11.20;1.00
296;DHT22;132;48.770;9.200;2024-01-25T16:55:58;11.10;1.00
296;DHT22;132;48.770;9.200;2024-01-25T16:58:44;11.10;1.00
296;DHT22;132;48.770;9.200;2024-01-25T17:01:31;11.00;1.00
296;DHT22;132;48.770;9.200;2024-01-25T17:04:18;10.90;1.00
296;DHT22;132;48.770;9.200;2024-01-25T17:07:05;10.90;1.00
296;DHT22;132;48.770;9.200;2024-01-25T17:09:51;10.90;1.00
296;DHT22;132;48.770;9.200;2024-01-25T17:12:38;10.80;1.00
296;DHT22;132;48.770;9.200;2024-01-25T17:15:25;10.90;1.00
296;DHT22;132;48.770;9.200;2024-01-25T17:18:12;10.90;1.00
296;DHT22;132;48.770;9.200;2024-01-25T17:20:58;10.80;1.00
296;DHT22;132;48.770;9.200;2024-01-25T17:23:45;10.70;1.00
296;DHT22;132;48.770;9.200;2024-01-25T17:26:32;10.70;1.00
296;DHT22;132;48.770;9.200;2024-01-25T17:29:18;10.70;1.00
296;DHT22;132;48.770;9.200;2024-01-25T17:32:05;10.70;1.00
296;DHT22;132;48.770;9.200;2024-01-25T17:34:54;10.70;1.00
296;DHT22;132;48.770;9.200;2024-01-25T17:37:41;10.70;1.00
296;DHT22;132;48.770;9.200;2024-01-25T17:40:28;10.70;1.00
296;DHT22;132;48.770;9.200;2024-01-25T17:43:14;10.40;1.00
296;DHT22;132;48.770;9.200;2024-01-25T17:46:02;10.60;1.00
296;DHT22;132;48.770;9.200;2024-01-25T17:48:48;10.50;1.00
296;DHT22;132;48.770;9.200;2024-01-25T17:51:36;10.50;1.00
296;DHT22;132;48.770;9.200;2024-01-25T17:54:22;10.40;1.00
296;DHT22;132;48.770;9.200;2024-01-25T17:57:10;10.30;1.00
296;DHT22;132;48.770;9.200;2024-01-25T17:59:57;10.30;1.00
296;DHT22;132;48.770;9.200;2024-01-25T18:02:44;10.30;1.00
296;DHT22;132;48.770;9.200;2024-01-25T18:05:30;10.20;1.00
296;DHT22;132;48.770;9.200;2024-01-25T18:08:17;10.10;1.00
296;DHT22;132;48.770;9.200;2024-01-25T18:11:03;10.00;1.00
296;DHT22;132;48.770;9.200;2024-01-25T18:13:50;10.00;1.00
296;DHT22;132;48.770;9.200;2024-01-25T18:16:37;10.10;1.00
296;DHT22;132;48.770;9.200;2024-01-25T18:19:23;10.10;1.00
296;DHT22;132;48.770;9.200;2024-01-25T18:22:12;10.00;1.00
296;DHT22;132;48.770;9.200;2024-01-25T18:24:59;10.10;1.00
296;DHT22;132;48.770;9.200;2024-01-25T18:27:46;10.00;1.00
296;DHT22;132;48.770;9.200;2024-01-25T18:30:32;10.00;1.00
296;DHT22;132;48.770;9.200;2024-01-25T18:33:19;10.00;1.00
296;DHT22;132;48.770;9.200;2024-01-25T18:36:06;9.90;1.00
296;DHT22;132;48.770;9.200;2024-01-25T18:38:55;9.90;1.00
296;DHT22;132;48.770;9.200;2024-01-25T18:41:41;9.80;1.00
296;DHT22;132;48.770;9.200;2024-01-25T18:44:28;9.80;1.00
296;DHT22;132;48.770;9.200;2024-01-25T18:47:15;9.80;1.00
296;DHT22;132;48.770;9.200;2024-01-25T18:50:01;9.70;1.00
296;DHT22;132;48.770;9.200;2024-01-25T18:52:48;9.70;1.00
296;DHT22;132;48.770;9.200;2024-01-25T18:55:35;9.80;1.00
296;DHT22;132;48.770;9.200;2024-01-25T18:58:22;9.80;1.00
296;DHT22;132;48.770;9.200;2024-01-25T19:01:10;9.80;1.00
296;DHT22;132;48.770;9.200;2024-01-25T19:03:58;9.80;1.00
296;DHT22;132;48.770;9.200;2024-01-25T19:06:52;9.80;1.00
296;DHT22;132;48.770;9.200;2024-01-25T19:09:39;9.80;1.00
296;DHT22;132;48.770;9.200;2024-01-25T19:12:26;9.80;1.00
296;DHT22;132;48.770;9.200;2024-01-25T19:15:13;9.80;1.00